Austin, Missouri
Current Conditions -  °F | °C
As of 1:23 AM on Saturday 20 Dec 2014 (Local Time) from KOJC Reporting Station
Haze Haze  
Wind Chill: 29°   Ceiling: 300
Heat Index: 33°   Visibility: 4mi
Dew Point: 32°   Wind: 5mph
Humidity: 96%   Direction: 260°W
Pressure: 30.19"   Gusts: NA
Location:  38.5148°N, 94.3768°W
Report Text: KOJC 200723Z AUTO 26004KT 4SM BR OVC003 01/00 A3019 RMK AO2 CIG 002V006 T00060000
Loading
Personal Weather Stations






























Interactive Weather Map New forecast layout! Learn more

10-Day Weather Forecast

Advertisements
Track Severe Weather on mobile